sensor_id;sensor_type;location;lat;lon;timestamp;P1;durP1;ratioP1;P2;durP2;ratioP2
8337;SDS011;4206;48.634;9.516;2022-12-18T00:02:13;79.47;;;25.57;;
8337;SDS011;4206;48.634;9.516;2022-12-18T00:04:39;69.43;;;25.03;;
8337;SDS011;4206;48.634;9.516;2022-12-18T00:07:04;73.50;;;23.03;;
8337;SDS011;4206;48.634;9.516;2022-12-18T00:09:30;82.17;;;24.90;;
8337;SDS011;4206;48.634;9.516;2022-12-18T00:11:55;68.07;;;23.50;;
8337;SDS011;4206;48.634;9.516;2022-12-18T00:14:21;62.43;;;23.50;;
8337;SDS011;4206;48.634;9.516;2022-12-18T00:16:47;68.97;;;26.17;;
8337;SDS011;4206;48.634;9.516;2022-12-18T00:19:13;65.23;;;24.10;;
8337;SDS011;4206;48.634;9.516;2022-12-18T00:21:39;72.80;;;24.00;;
8337;SDS011;4206;48.634;9.516;2022-12-18T00:24:06;73.70;;;24.60;;
8337;SDS011;4206;48.634;9.516;2022-12-18T00:26:33;77.57;;;27.57;;
8337;SDS011;4206;48.634;9.516;2022-12-18T00:29:00;74.77;;;25.77;;
8337;SDS011;4206;48.634;9.516;2022-12-18T00:31:28;75.43;;;24.27;;
8337;SDS011;4206;48.634;9.516;2022-12-18T00:33:54;89.83;;;27.77;;
8337;SDS011;4206;48.634;9.516;2022-12-18T00:36:22;82.30;;;26.10;;
8337;SDS011;4206;48.634;9.516;2022-12-18T00:38:50;66.53;;;24.50;;
8337;SDS011;4206;48.634;9.516;2022-12-18T00:41:16;90.80;;;28.20;;
8337;SDS011;4206;48.634;9.516;2022-12-18T00:44:03;73.20;;;26.70;;
8337;SDS011;4206;48.634;9.516;2022-12-18T00:46:30;66.03;;;24.40;;
8337;SDS011;4206;48.634;9.516;2022-12-18T00:48:57;90.70;;;29.43;;
8337;SDS011;4206;48.634;9.516;2022-12-18T00:51:23;83.70;;;26.97;;
8337;SDS011;4206;48.634;9.516;2022-12-18T00:53:49;72.33;;;26.77;;
8337;SDS011;4206;48.634;9.516;2022-12-18T00:56:15;77.30;;;24.67;;
8337;SDS011;4206;48.634;9.516;2022-12-18T00:58:41;79.80;;;26.50;;
8337;SDS011;4206;48.634;9.516;2022-12-18T01:01:07;76.90;;;26.07;;
8337;SDS011;4206;48.634;9.516;2022-12-18T01:03:33;63.53;;;24.80;;
8337;SDS011;4206;48.634;9.516;2022-12-18T01:05:58;66.30;;;25.00;;
8337;SDS011;4206;48.634;9.516;2022-12-18T01:08:24;84.73;;;25.90;;
8337;SDS011;4206;48.634;9.516;2022-12-18T01:10:50;68.20;;;23.33;;
8337;SDS011;4206;48.634;9.516;2022-12-18T01:13:15;72.07;;;23.47;;
8337;SDS011;4206;48.634;9.516;2022-12-18T01:15:47;76.30;;;24.13;;
8337;SDS011;4206;48.634;9.516;2022-12-18T01:18:14;76.63;;;23.40;;
8337;SDS011;4206;48.634;9.516;2022-12-18T01:20:39;71.67;;;23.90;;
8337;SDS011;4206;48.634;9.516;2022-12-18T01:23:05;101.47;;;25.07;;
8337;SDS011;4206;48.634;9.516;2022-12-18T01:25:31;71.53;;;23.37;;
8337;SDS011;4206;48.634;9.516;2022-12-18T01:27:58;91.57;;;24.60;;
8337;SDS011;4206;48.634;9.516;2022-12-18T01:30:23;85.97;;;26.40;;
8337;SDS011;4206;48.634;9.516;2022-12-18T01:32:49;66.23;;;22.70;;
8337;SDS011;4206;48.634;9.516;2022-12-18T01:35:14;77.73;;;26.23;;
8337;SDS011;4206;48.634;9.516;2022-12-18T01:37:40;63.30;;;22.40;;
8337;SDS011;4206;48.634;9.516;2022-12-18T01:40:06;70.70;;;23.47;;
8337;SDS011;4206;48.634;9.516;2022-12-18T01:42:32;72.57;;;24.43;;
8337;SDS011;4206;48.634;9.516;2022-12-18T01:44:59;64.73;;;23.17;;
8337;SDS011;4206;48.634;9.516;2022-12-18T01:47:30;65.23;;;23.77;;
8337;SDS011;4206;48.634;9.516;2022-12-18T01:50:02;59.63;;;21.17;;
8337;SDS011;4206;48.634;9.516;2022-12-18T01:52:32;57.30;;;21.87;;
8337;SDS011;4206;48.634;9.516;2022-12-18T01:54:58;56.30;;;20.57;;
8337;SDS011;4206;48.634;9.516;2022-12-18T01:57:25;78.50;;;21.93;;
8337;SDS011;4206;48.634;9.516;2022-12-18T01:59:53;81.67;;;24.20;;
8337;SDS011;4206;48.634;9.516;2022-12-18T02:02:22;69.40;;;23.20;;
8337;SDS011;4206;48.634;9.516;2022-12-18T02:04:48;68.73;;;21.80;;
8337;SDS011;4206;48.634;9.516;2022-12-18T02:09:42;108.10;;;22.60;;
8337;SDS011;4206;48.634;9.516;2022-12-18T02:14:44;61.17;;;21.30;;
8337;SDS011;4206;48.634;9.516;2022-12-18T02:17:35;66.17;;;22.20;;
8337;SDS011;4206;48.634;9.516;2022-12-18T02:27:43;58.00;;;20.37;;
8337;SDS011;4206;48.634;9.516;2022-12-18T02:30:12;50.87;;;20.27;;
8337;SDS011;4206;48.634;9.516;2022-12-18T02:32:40;54.63;;;19.90;;
8337;SDS011;4206;48.634;9.516;2022-12-18T02:35:12;72.03;;;22.73;;
8337;SDS011;4206;48.634;9.516;2022-12-18T02:37:42;57.93;;;20.10;;
8337;SDS011;4206;48.634;9.516;2022-12-18T02:40:10;57.00;;;19.23;;
8337;SDS011;4206;48.634;9.516;2022-12-18T02:42:37;65.13;;;22.13;;
8337;SDS011;4206;48.634;9.516;2022-12-18T02:45:03;60.70;;;21.40;;
8337;SDS011;4206;48.634;9.516;2022-12-18T02:47:30;57.77;;;21.40;;
8337;SDS011;4206;48.634;9.516;2022-12-18T02:55:32;60.43;;;20.77;;
8337;SDS011;4206;48.634;9.516;2022-12-18T03:00:48;65.93;;;22.90;;
8337;SDS011;4206;48.634;9.516;2022-12-18T03:03:34;47.17;;;18.50;;
8337;SDS011;4206;48.634;9.516;2022-12-18T03:06:06;62.03;;;22.77;;
8337;SDS011;4206;48.634;9.516;2022-12-18T03:08:37;62.17;;;22.30;;
8337;SDS011;4206;48.634;9.516;2022-12-18T03:11:07;59.63;;;23.50;;
8337;SDS011;4206;48.634;9.516;2022-12-18T03:13:36;68.00;;;23.47;;
8337;SDS011;4206;48.634;9.516;2022-12-18T03:16:20;57.97;;;19.63;;
8337;SDS011;4206;48.634;9.516;2022-12-18T03:18:52;58.17;;;20.57;;
8337;SDS011;4206;48.634;9.516;2022-12-18T03:21:23;57.00;;;20.70;;
8337;SDS011;4206;48.634;9.516;2022-12-18T03:23:53;63.37;;;22.37;;
8337;SDS011;4206;48.634;9.516;2022-12-18T03:26:22;70.90;;;22.63;;
8337;SDS011;4206;48.634;9.516;2022-12-18T03:28:51;64.93;;;19.37;;
8337;SDS011;4206;48.634;9.516;2022-12-18T03:31:21;64.87;;;20.80;;
8337;SDS011;4206;48.634;9.516;2022-12-18T03:33:56;61.77;;;20.47;;
8337;SDS011;4206;48.634;9.516;2022-12-18T03:36:25;63.67;;;21.07;;
8337;SDS011;4206;48.634;9.516;2022-12-18T03:38:51;69.87;;;20.83;;
8337;SDS011;4206;48.634;9.516;2022-12-18T03:41:19;59.43;;;18.80;;
8337;SDS011;4206;48.634;9.516;2022-12-18T03:49:23;68.30;;;19.20;;
8337;SDS011;4206;48.634;9.516;2022-12-18T03:51:58;61.00;;;21.00;;
8337;SDS011;4206;48.634;9.516;2022-12-18T03:54:40;70.70;;;20.63;;
8337;SDS011;4206;48.634;9.516;2022-12-18T03:57:16;77.17;;;21.80;;
8337;SDS011;4206;48.634;9.516;2022-12-18T03:59:46;48.63;;;18.70;;
8337;SDS011;4206;48.634;9.516;2022-12-18T04:02:15;57.87;;;20.40;;
8337;SDS011;4206;48.634;9.516;2022-12-18T04:04:42;57.90;;;20.17;;
8337;SDS011;4206;48.634;9.516;2022-12-18T04:07:09;44.10;;;18.03;;
8337;SDS011;4206;48.634;9.516;2022-12-18T04:09:38;47.23;;;17.60;;
8337;SDS011;4206;48.634;9.516;2022-12-18T04:12:05;46.37;;;18.67;;
8337;SDS011;4206;48.634;9.516;2022-12-18T04:14:31;51.30;;;17.67;;
8337;SDS011;4206;48.634;9.516;2022-12-18T04:17:00;63.37;;;20.80;;
8337;SDS011;4206;48.634;9.516;2022-12-18T04:19:26;59.93;;;20.60;;
8337;SDS011;4206;48.634;9.516;2022-12-18T04:21:52;47.67;;;18.37;;
8337;SDS011;4206;48.634;9.516;2022-12-18T04:24:17;47.47;;;17.50;;
8337;SDS011;4206;48.634;9.516;2022-12-18T04:26:43;55.07;;;19.40;;
8337;SDS011;4206;48.634;9.516;2022-12-18T04:29:08;45.47;;;17.60;;
8337;SDS011;4206;48.634;9.516;2022-12-18T04:31:34;48.97;;;16.17;;
8337;SDS011;4206;48.634;9.516;2022-12-18T04:34:00;55.13;;;18.07;;
8337;SDS011;4206;48.634;9.516;2022-12-18T04:36:26;50.17;;;16.93;;
8337;SDS011;4206;48.634;9.516;2022-12-18T04:38:52;53.90;;;19.40;;
8337;SDS011;4206;48.634;9.516;2022-12-18T04:41:18;57.97;;;19.90;;
8337;SDS011;4206;48.634;9.516;2022-12-18T04:43:43;56.00;;;16.73;;
8337;SDS011;4206;48.634;9.516;2022-12-18T04:46:09;47.47;;;16.97;;
8337;SDS011;4206;48.634;9.516;2022-12-18T04:48:35;41.27;;;17.70;;
8337;SDS011;4206;48.634;9.516;2022-12-18T04:51:01;53.03;;;17.37;;
8337;SDS011;4206;48.634;9.516;2022-12-18T04:53:27;60.47;;;19.77;;
8337;SDS011;4206;48.634;9.516;2022-12-18T04:58:35;48.03;;;17.83;;
8337;SDS011;4206;48.634;9.516;2022-12-18T05:01:02;60.93;;;19.50;;
8337;SDS011;4206;48.634;9.516;2022-12-18T05:03:28;51.27;;;20.00;;
8337;SDS011;4206;48.634;9.516;2022-12-18T05:05:54;46.23;;;17.73;;
8337;SDS011;4206;48.634;9.516;2022-12-18T05:08:20;58.47;;;18.13;;
8337;SDS011;4206;48.634;9.516;2022-12-18T05:10:45;44.40;;;17.80;;
8337;SDS011;4206;48.634;9.516;2022-12-18T05:13:11;60.00;;;18.30;;
8337;SDS011;4206;48.634;9.516;2022-12-18T05:15:36;47.87;;;16.70;;
8337;SDS011;4206;48.634;9.516;2022-12-18T05:18:02;48.03;;;17.93;;
8337;SDS011;4206;48.634;9.516;2022-12-18T05:20:28;49.97;;;17.03;;
8337;SDS011;4206;48.634;9.516;2022-12-18T05:22:54;54.00;;;18.17;;
8337;SDS011;4206;48.634;9.516;2022-12-18T05:25:21;47.00;;;18.30;;
8337;SDS011;4206;48.634;9.516;2022-12-18T05:27:47;43.63;;;17.33;;
8337;SDS011;4206;48.634;9.516;2022-12-18T05:30:13;44.77;;;17.37;;
8337;SDS011;4206;48.634;9.516;2022-12-18T05:32:39;48.27;;;16.93;;
8337;SDS011;4206;48.634;9.516;2022-12-18T05:35:09;45.83;;;17.20;;
8337;SDS011;4206;48.634;9.516;2022-12-18T05:37:35;36.90;;;15.20;;
8337;SDS011;4206;48.634;9.516;2022-12-18T05:40:02;50.00;;;18.90;;
8337;SDS011;4206;48.634;9.516;2022-12-18T05:42:29;50.20;;;17.83;;
8337;SDS011;4206;48.634;9.516;2022-12-18T05:44:55;63.40;;;19.00;;
8337;SDS011;4206;48.634;9.516;2022-12-18T05:47:20;49.80;;;17.30;;
8337;SDS011;4206;48.634;9.516;2022-12-18T05:49:46;53.60;;;17.20;;
8337;SDS011;4206;48.634;9.516;2022-12-18T05:52:12;55.43;;;19.50;;
8337;SDS011;4206;48.634;9.516;2022-12-18T05:54:37;48.03;;;17.70;;
8337;SDS011;4206;48.634;9.516;2022-12-18T05:57:04;67.33;;;20.53;;
8337;SDS011;4206;48.634;9.516;2022-12-18T05:59:29;45.17;;;16.23;;
8337;SDS011;4206;48.634;9.516;2022-12-18T06:01:55;45.40;;;16.87;;
8337;SDS011;4206;48.634;9.516;2022-12-18T06:04:20;52.23;;;19.27;;
8337;SDS011;4206;48.634;9.516;2022-12-18T06:06:46;43.20;;;17.03;;
8337;SDS011;4206;48.634;9.516;2022-12-18T06:09:12;48.47;;;16.90;;
8337;SDS011;4206;48.634;9.516;2022-12-18T06:11:37;49.37;;;18.90;;
8337;SDS011;4206;48.634;9.516;2022-12-18T06:14:03;39.17;;;17.13;;
8337;SDS011;4206;48.634;9.516;2022-12-18T06:16:30;70.87;;;24.90;;
8337;SDS011;4206;48.634;9.516;2022-12-18T06:18:57;63.20;;;21.47;;
8337;SDS011;4206;48.634;9.516;2022-12-18T06:21:23;53.03;;;18.47;;
8337;SDS011;4206;48.634;9.516;2022-12-18T06:23:49;42.30;;;16.30;;
8337;SDS011;4206;48.634;9.516;2022-12-18T06:26:15;42.03;;;16.20;;
8337;SDS011;4206;48.634;9.516;2022-12-18T06:28:41;40.20;;;15.33;;
8337;SDS011;4206;48.634;9.516;2022-12-18T06:31:07;37.60;;;13.90;;
8337;SDS011;4206;48.634;9.516;2022-12-18T06:33:33;49.40;;;15.50;;
8337;SDS011;4206;48.634;9.516;2022-12-18T06:36:00;37.70;;;15.23;;
8337;SDS011;4206;48.634;9.516;2022-12-18T06:38:28;50.83;;;18.33;;
8337;SDS011;4206;48.634;9.516;2022-12-18T06:40:53;47.80;;;17.70;;
8337;SDS011;4206;48.634;9.516;2022-12-18T06:43:19;47.83;;;18.60;;
8337;SDS011;4206;48.634;9.516;2022-12-18T06:45:45;47.70;;;17.33;;
8337;SDS011;4206;48.634;9.516;2022-12-18T06:48:14;40.80;;;16.80;;
8337;SDS011;4206;48.634;9.516;2022-12-18T06:50:41;50.00;;;17.10;;
8337;SDS011;4206;48.634;9.516;2022-12-18T06:53:07;46.40;;;17.33;;
8337;SDS011;4206;48.634;9.516;2022-12-18T06:55:33;48.23;;;18.43;;
8337;SDS011;4206;48.634;9.516;2022-12-18T06:58:06;54.57;;;19.17;;
8337;SDS011;4206;48.634;9.516;2022-12-18T07:00:31;55.60;;;19.63;;
8337;SDS011;4206;48.634;9.516;2022-12-18T07:02:57;41.93;;;16.97;;
8337;SDS011;4206;48.634;9.516;2022-12-18T07:05:23;42.77;;;17.57;;
8337;SDS011;4206;48.634;9.516;2022-12-18T07:07:48;43.40;;;17.17;;
8337;SDS011;4206;48.634;9.516;2022-12-18T07:10:14;60.00;;;18.37;;
8337;SDS011;4206;48.634;9.516;2022-12-18T07:12:40;39.20;;;15.90;;
8337;SDS011;4206;48.634;9.516;2022-12-18T07:15:06;44.37;;;15.90;;
8337;SDS011;4206;48.634;9.516;2022-12-18T07:17:32;51.07;;;18.37;;
8337;SDS011;4206;48.634;9.516;2022-12-18T07:19:58;53.53;;;19.70;;
8337;SDS011;4206;48.634;9.516;2022-12-18T07:22:24;47.10;;;16.10;;
8337;SDS011;4206;48.634;9.516;2022-12-18T07:24:51;70.03;;;25.87;;
8337;SDS011;4206;48.634;9.516;2022-12-18T07:27:16;71.67;;;25.00;;
8337;SDS011;4206;48.634;9.516;2022-12-18T07:29:42;72.83;;;24.80;;
8337;SDS011;4206;48.634;9.516;2022-12-18T07:32:08;70.77;;;26.53;;
8337;SDS011;4206;48.634;9.516;2022-12-18T07:34:34;61.97;;;23.70;;
8337;SDS011;4206;48.634;9.516;2022-12-18T07:36:59;64.43;;;21.93;;
8337;SDS011;4206;48.634;9.516;2022-12-18T07:39:25;61.67;;;22.00;;
8337;SDS011;4206;48.634;9.516;2022-12-18T07:41:51;53.30;;;19.37;;
8337;SDS011;4206;48.634;9.516;2022-12-18T07:44:32;98.30;;;31.80;;
8337;SDS011;4206;48.634;9.516;2022-12-18T07:46:57;81.60;;;27.20;;
8337;SDS011;4206;48.634;9.516;2022-12-18T07:49:23;59.97;;;22.17;;
8337;SDS011;4206;48.634;9.516;2022-12-18T07:51:48;64.63;;;24.30;;
8337;SDS011;4206;48.634;9.516;2022-12-18T07:54:14;57.20;;;20.40;;
8337;SDS011;4206;48.634;9.516;2022-12-18T07:56:40;55.23;;;22.50;;
8337;SDS011;4206;48.634;9.516;2022-12-18T07:59:05;62.53;;;22.87;;
8337;SDS011;4206;48.634;9.516;2022-12-18T08:01:32;69.60;;;24.53;;
8337;SDS011;4206;48.634;9.516;2022-12-18T08:03:59;55.50;;;23.30;;
8337;SDS011;4206;48.634;9.516;2022-12-18T08:06:25;77.07;;;28.23;;
8337;SDS011;4206;48.634;9.516;2022-12-18T08:08:52;70.50;;;27.70;;
8337;SDS011;4206;48.634;9.516;2022-12-18T08:11:18;67.30;;;24.80;;
8337;SDS011;4206;48.634;9.516;2022-12-18T08:13:44;55.07;;;23.47;;
8337;SDS011;4206;48.634;9.516;2022-12-18T08:16:09;64.50;;;23.53;;
8337;SDS011;4206;48.634;9.516;2022-12-18T08:18:36;60.87;;;22.87;;
8337;SDS011;4206;48.634;9.516;2022-12-18T08:23:45;73.20;;;27.63;;
8337;SDS011;4206;48.634;9.516;2022-12-18T08:26:11;67.47;;;24.93;;
8337;SDS011;4206;48.634;9.516;2022-12-18T08:28:37;55.43;;;23.07;;
8337;SDS011;4206;48.634;9.516;2022-12-18T08:31:03;147.93;;;45.63;;
8337;SDS011;4206;48.634;9.516;2022-12-18T08:33:29;66.60;;;27.10;;
8337;SDS011;4206;48.634;9.516;2022-12-18T08:35:55;62.73;;;26.00;;
8337;SDS011;4206;48.634;9.516;2022-12-18T08:38:21;70.00;;;25.20;;
8337;SDS011;4206;48.634;9.516;2022-12-18T08:40:47;64.93;;;25.87;;
8337;SDS011;4206;48.634;9.516;2022-12-18T08:43:13;52.63;;;21.60;;
8337;SDS011;4206;48.634;9.516;2022-12-18T08:45:54;56.37;;;22.20;;
8337;SDS011;4206;48.634;9.516;2022-12-18T08:48:20;66.63;;;25.20;;
8337;SDS011;4206;48.634;9.516;2022-12-18T08:53:27;51.77;;;21.03;;
8337;SDS011;4206;48.634;9.516;2022-12-18T08:55:52;52.90;;;21.27;;
8337;SDS011;4206;48.634;9.516;2022-12-18T08:58:18;56.60;;;22.87;;
8337;SDS011;4206;48.634;9.516;2022-12-18T09:00:45;56.13;;;24.00;;
8337;SDS011;4206;48.634;9.516;2022-12-18T09:03:12;56.10;;;25.67;;
8337;SDS011;4206;48.634;9.516;2022-12-18T09:05:39;50.40;;;23.70;;
8337;SDS011;4206;48.634;9.516;2022-12-18T09:08:04;71.27;;;24.20;;
8337;SDS011;4206;48.634;9.516;2022-12-18T09:10:30;58.37;;;25.50;;
8337;SDS011;4206;48.634;9.516;2022-12-18T09:12:56;58.60;;;24.50;;
8337;SDS011;4206;48.634;9.516;2022-12-18T09:15:22;53.30;;;23.73;;
8337;SDS011;4206;48.634;9.516;2022-12-18T09:17:48;66.90;;;28.40;;
8337;SDS011;4206;48.634;9.516;2022-12-18T09:20:15;71.40;;;27.90;;
8337;SDS011;4206;48.634;9.516;2022-12-18T09:22:41;68.83;;;27.33;;
8337;SDS011;4206;48.634;9.516;2022-12-18T09:25:07;60.33;;;24.27;;
8337;SDS011;4206;48.634;9.516;2022-12-18T09:27:33;57.23;;;25.87;;
8337;SDS011;4206;48.634;9.516;2022-12-18T09:29:59;67.87;;;26.00;;
8337;SDS011;4206;48.634;9.516;2022-12-18T09:32:25;66.73;;;29.13;;
8337;SDS011;4206;48.634;9.516;2022-12-18T09:34:51;69.37;;;26.83;;
8337;SDS011;4206;48.634;9.516;2022-12-18T09:37:16;84.40;;;30.53;;
8337;SDS011;4206;48.634;9.516;2022-12-18T09:39:45;59.00;;;26.07;;
8337;SDS011;4206;48.634;9.516;2022-12-18T09:42:20;65.00;;;29.60;;
8337;SDS011;4206;48.634;9.516;2022-12-18T09:44:50;69.40;;;29.07;;
8337;SDS011;4206;48.634;9.516;2022-12-18T09:47:21;64.80;;;28.07;;
8337;SDS011;4206;48.634;9.516;2022-12-18T09:49:51;68.13;;;27.03;;
8337;SDS011;4206;48.634;9.516;2022-12-18T09:52:22;54.47;;;24.40;;
8337;SDS011;4206;48.634;9.516;2022-12-18T09:55:00;55.53;;;25.60;;
8337;SDS011;4206;48.634;9.516;2022-12-18T09:57:31;59.40;;;25.30;;
8337;SDS011;4206;48.634;9.516;2022-12-18T10:00:04;55.20;;;25.87;;
8337;SDS011;4206;48.634;9.516;2022-12-18T10:02:40;53.17;;;26.00;;
8337;SDS011;4206;48.634;9.516;2022-12-18T10:05:07;54.30;;;26.20;;
8337;SDS011;4206;48.634;9.516;2022-12-18T10:07:40;55.70;;;26.10;;
8337;SDS011;4206;48.634;9.516;2022-12-18T10:10:21;58.30;;;27.37;;
8337;SDS011;4206;48.634;9.516;2022-12-18T10:12:59;55.27;;;28.20;;
8337;SDS011;4206;48.634;9.516;2022-12-18T10:15:32;52.20;;;26.17;;
8337;SDS011;4206;48.634;9.516;2022-12-18T10:18:07;51.03;;;24.83;;
8337;SDS011;4206;48.634;9.516;2022-12-18T10:20:55;55.47;;;25.37;;
8337;SDS011;4206;48.634;9.516;2022-12-18T10:23:28;55.93;;;29.03;;
8337;SDS011;4206;48.634;9.516;2022-12-18T10:28:29;58.77;;;29.70;;
8337;SDS011;4206;48.634;9.516;2022-12-18T10:30:56;53.57;;;28.60;;
8337;SDS011;4206;48.634;9.516;2022-12-18T10:33:23;64.60;;;34.23;;
8337;SDS011;4206;48.634;9.516;2022-12-18T10:35:53;55.07;;;29.43;;
8337;SDS011;4206;48.634;9.516;2022-12-18T10:38:22;57.23;;;29.23;;
8337;SDS011;4206;48.634;9.516;2022-12-18T10:43:20;59.33;;;28.47;;
8337;SDS011;4206;48.634;9.516;2022-12-18T10:48:34;82.87;;;34.50;;
8337;SDS011;4206;48.634;9.516;2022-12-18T10:51:04;89.07;;;40.93;;
8337;SDS011;4206;48.634;9.516;2022-12-18T10:53:31;77.30;;;36.20;;
8337;SDS011;4206;48.634;9.516;2022-12-18T10:56:00;89.07;;;40.13;;
8337;SDS011;4206;48.634;9.516;2022-12-18T11:03:35;67.33;;;32.00;;
8337;SDS011;4206;48.634;9.516;2022-12-18T11:06:08;67.40;;;32.13;;
8337;SDS011;4206;48.634;9.516;2022-12-18T11:08:43;59.07;;;30.43;;
8337;SDS011;4206;48.634;9.516;2022-12-18T11:11:22;60.93;;;29.90;;
8337;SDS011;4206;48.634;9.516;2022-12-18T11:13:54;61.60;;;30.90;;
8337;SDS011;4206;48.634;9.516;2022-12-18T11:16:36;61.00;;;29.10;;
8337;SDS011;4206;48.634;9.516;2022-12-18T11:19:10;58.07;;;29.67;;
8337;SDS011;4206;48.634;9.516;2022-12-18T11:21:47;63.23;;;30.40;;
8337;SDS011;4206;48.634;9.516;2022-12-18T11:24:17;46.80;;;24.60;;
8337;SDS011;4206;48.634;9.516;2022-12-18T11:26:49;51.67;;;25.30;;
8337;SDS011;4206;48.634;9.516;2022-12-18T11:29:17;44.83;;;23.20;;
8337;SDS011;4206;48.634;9.516;2022-12-18T11:31:47;46.30;;;23.40;;
8337;SDS011;4206;48.634;9.516;2022-12-18T11:36:46;40.57;;;24.07;;
8337;SDS011;4206;48.634;9.516;2022-12-18T11:42:09;42.70;;;23.10;;
8337;SDS011;4206;48.634;9.516;2022-12-18T11:44:48;45.00;;;24.10;;
8337;SDS011;4206;48.634;9.516;2022-12-18T11:47:27;42.20;;;23.40;;
8337;SDS011;4206;48.634;9.516;2022-12-18T11:50:02;45.00;;;23.23;;
8337;SDS011;4206;48.634;9.516;2022-12-18T11:52:38;40.80;;;21.90;;
8337;SDS011;4206;48.634;9.516;2022-12-18T11:55:14;45.37;;;23.27;;
8337;SDS011;4206;48.634;9.516;2022-12-18T12:00:27;44.77;;;25.63;;
8337;SDS011;4206;48.634;9.516;2022-12-18T12:16:13;51.33;;;28.00;;
8337;SDS011;4206;48.634;9.516;2022-12-18T12:27:06;44.23;;;24.27;;
8337;SDS011;4206;48.634;9.516;2022-12-18T12:40:44;45.53;;;25.03;;
8337;SDS011;4206;48.634;9.516;2022-12-18T12:46:03;49.70;;;25.90;;
8337;SDS011;4206;48.634;9.516;2022-12-18T12:48:36;40.10;;;22.33;;
8337;SDS011;4206;48.634;9.516;2022-12-18T12:51:26;45.50;;;23.80;;
8337;SDS011;4206;48.634;9.516;2022-12-18T12:53:54;41.57;;;23.50;;
8337;SDS011;4206;48.634;9.516;2022-12-18T12:56:22;57.50;;;29.30;;
8337;SDS011;4206;48.634;9.516;2022-12-18T13:01:30;48.30;;;25.93;;
8337;SDS011;4206;48.634;9.516;2022-12-18T13:09:30;66.10;;;35.20;;
8337;SDS011;4206;48.634;9.516;2022-12-18T13:12:01;66.00;;;34.13;;
8337;SDS011;4206;48.634;9.516;2022-12-18T13:14:44;89.10;;;39.30;;
8337;SDS011;4206;48.634;9.516;2022-12-18T13:17:14;58.60;;;30.03;;
8337;SDS011;4206;48.634;9.516;2022-12-18T13:19:40;54.50;;;26.80;;
8337;SDS011;4206;48.634;9.516;2022-12-18T13:22:19;47.20;;;25.40;;
8337;SDS011;4206;48.634;9.516;2022-12-18T13:24:50;44.00;;;22.50;;
8337;SDS011;4206;48.634;9.516;2022-12-18T13:35:39;47.67;;;25.37;;
8337;SDS011;4206;48.634;9.516;2022-12-18T13:43:31;48.90;;;21.27;;
8337;SDS011;4206;48.634;9.516;2022-12-18T13:46:05;60.20;;;27.87;;
8337;SDS011;4206;48.634;9.516;2022-12-18T13:48:49;51.53;;;24.43;;
8337;SDS011;4206;48.634;9.516;2022-12-18T13:51:31;54.00;;;24.57;;
8337;SDS011;4206;48.634;9.516;2022-12-18T13:56:29;53.80;;;24.67;;
8337;SDS011;4206;48.634;9.516;2022-12-18T14:01:47;50.50;;;24.57;;
8337;SDS011;4206;48.634;9.516;2022-12-18T14:06:45;62.27;;;25.43;;
8337;SDS011;4206;48.634;9.516;2022-12-18T14:09:14;51.30;;;24.50;;
8337;SDS011;4206;48.634;9.516;2022-12-18T14:11:46;49.70;;;23.87;;
8337;SDS011;4206;48.634;9.516;2022-12-18T14:14:40;60.20;;;24.27;;
8337;SDS011;4206;48.634;9.516;2022-12-18T14:17:12;51.87;;;24.67;;
8337;SDS011;4206;48.634;9.516;2022-12-18T14:19:41;59.30;;;26.37;;
8337;SDS011;4206;48.634;9.516;2022-12-18T14:22:14;56.40;;;27.50;;
8337;SDS011;4206;48.634;9.516;2022-12-18T14:24:43;56.27;;;27.40;;
8337;SDS011;4206;48.634;9.516;2022-12-18T14:27:17;58.20;;;27.20;;
8337;SDS011;4206;48.634;9.516;2022-12-18T14:29:47;60.33;;;29.00;;
8337;SDS011;4206;48.634;9.516;2022-12-18T14:32:13;65.23;;;28.10;;
8337;SDS011;4206;48.634;9.516;2022-12-18T14:34:45;71.40;;;30.80;;
8337;SDS011;4206;48.634;9.516;2022-12-18T14:37:14;68.77;;;30.77;;
8337;SDS011;4206;48.634;9.516;2022-12-18T14:39:51;77.10;;;31.17;;
8337;SDS011;4206;48.634;9.516;2022-12-18T14:42:18;77.10;;;31.57;;
8337;SDS011;4206;48.634;9.516;2022-12-18T14:44:48;79.27;;;36.90;;
8337;SDS011;4206;48.634;9.516;2022-12-18T14:47:15;77.00;;;35.43;;
8337;SDS011;4206;48.634;9.516;2022-12-18T14:49:41;80.00;;;32.53;;
8337;SDS011;4206;48.634;9.516;2022-12-18T14:52:19;67.70;;;31.77;;
8337;SDS011;4206;48.634;9.516;2022-12-18T14:54:54;79.23;;;33.73;;
8337;SDS011;4206;48.634;9.516;2022-12-18T14:57:22;73.27;;;32.47;;
8337;SDS011;4206;48.634;9.516;2022-12-18T14:59:50;67.20;;;30.57;;
8337;SDS011;4206;48.634;9.516;2022-12-18T15:02:23;66.47;;;30.70;;
8337;SDS011;4206;48.634;9.516;2022-12-18T15:05:01;62.87;;;31.13;;
8337;SDS011;4206;48.634;9.516;2022-12-18T15:07:39;63.20;;;28.83;;
8337;SDS011;4206;48.634;9.516;2022-12-18T15:12:46;64.47;;;31.17;;
8337;SDS011;4206;48.634;9.516;2022-12-18T15:15:48;62.43;;;29.37;;
8337;SDS011;4206;48.634;9.516;2022-12-18T15:20:30;68.47;;;30.17;;
8337;SDS011;4206;48.634;9.516;2022-12-18T15:22:57;60.13;;;27.47;;
8337;SDS011;4206;48.634;9.516;2022-12-18T15:25:29;63.93;;;30.97;;
8337;SDS011;4206;48.634;9.516;2022-12-18T15:27:59;79.40;;;31.67;;
8337;SDS011;4206;48.634;9.516;2022-12-18T15:30:25;88.37;;;37.47;;
8337;SDS011;4206;48.634;9.516;2022-12-18T15:32:51;87.20;;;38.87;;
8337;SDS011;4206;48.634;9.516;2022-12-18T15:35:37;82.50;;;36.00;;
8337;SDS011;4206;48.634;9.516;2022-12-18T15:38:03;74.77;;;31.93;;
8337;SDS011;4206;48.634;9.516;2022-12-18T15:40:28;77.83;;;32.50;;
8337;SDS011;4206;48.634;9.516;2022-12-18T15:42:54;64.77;;;28.93;;
8337;SDS011;4206;48.634;9.516;2022-12-18T15:45:36;77.70;;;31.90;;
8337;SDS011;4206;48.634;9.516;2022-12-18T15:48:18;76.17;;;32.10;;
8337;SDS011;4206;48.634;9.516;2022-12-18T15:50:47;58.27;;;27.10;;
8337;SDS011;4206;48.634;9.516;2022-12-18T15:53:13;69.50;;;31.47;;
8337;SDS011;4206;48.634;9.516;2022-12-18T15:55:39;61.23;;;29.63;;
8337;SDS011;4206;48.634;9.516;2022-12-18T15:58:20;69.73;;;33.00;;
8337;SDS011;4206;48.634;9.516;2022-12-18T16:00:45;57.03;;;26.87;;
8337;SDS011;4206;48.634;9.516;2022-12-18T16:03:11;75.53;;;30.90;;
8337;SDS011;4206;48.634;9.516;2022-12-18T16:05:37;75.83;;;31.00;;
8337;SDS011;4206;48.634;9.516;2022-12-18T16:08:02;83.87;;;30.87;;
8337;SDS011;4206;48.634;9.516;2022-12-18T16:10:28;143.57;;;47.00;;
8337;SDS011;4206;48.634;9.516;2022-12-18T16:12:54;118.97;;;44.53;;
8337;SDS011;4206;48.634;9.516;2022-12-18T16:15:20;109.10;;;39.90;;
8337;SDS011;4206;48.634;9.516;2022-12-18T16:17:46;111.33;;;43.93;;
8337;SDS011;4206;48.634;9.516;2022-12-18T16:20:20;92.67;;;39.63;;
8337;SDS011;4206;48.634;9.516;2022-12-18T16:22:47;90.40;;;35.57;;
8337;SDS011;4206;48.634;9.516;2022-12-18T16:27:49;73.40;;;29.33;;
8337;SDS011;4206;48.634;9.516;2022-12-18T16:30:17;63.70;;;26.50;;
8337;SDS011;4206;48.634;9.516;2022-12-18T16:32:45;61.47;;;25.90;;
8337;SDS011;4206;48.634;9.516;2022-12-18T16:35:12;63.67;;;27.00;;
8337;SDS011;4206;48.634;9.516;2022-12-18T16:37:39;63.67;;;26.30;;
8337;SDS011;4206;48.634;9.516;2022-12-18T16:40:06;69.97;;;30.00;;
8337;SDS011;4206;48.634;9.516;2022-12-18T16:42:34;67.57;;;27.07;;
8337;SDS011;4206;48.634;9.516;2022-12-18T16:45:01;63.10;;;24.90;;
8337;SDS011;4206;48.634;9.516;2022-12-18T16:47:27;60.47;;;25.80;;
8337;SDS011;4206;48.634;9.516;2022-12-18T16:49:53;55.70;;;24.23;;
8337;SDS011;4206;48.634;9.516;2022-12-18T16:52:18;73.63;;;27.60;;
8337;SDS011;4206;48.634;9.516;2022-12-18T16:54:44;59.90;;;24.97;;
8337;SDS011;4206;48.634;9.516;2022-12-18T16:57:12;54.20;;;24.10;;
8337;SDS011;4206;48.634;9.516;2022-12-18T16:59:39;55.63;;;23.93;;
8337;SDS011;4206;48.634;9.516;2022-12-18T17:02:05;59.57;;;23.70;;
8337;SDS011;4206;48.634;9.516;2022-12-18T17:04:36;62.70;;;23.60;;
8337;SDS011;4206;48.634;9.516;2022-12-18T17:07:02;53.70;;;23.50;;